createdAt,value
2018-02-03T00:00:14.780Z,3.06
2018-02-03T00:01:14.796Z,3.11
2018-02-03T00:02:14.814Z,3.13
2018-02-03T00:03:14.814Z,3.08
2018-02-03T00:04:14.827Z,3.12
2018-02-03T00:05:14.850Z,3.15
2018-02-03T00:06:14.854Z,3.31
2018-02-03T00:07:14.865Z,3.33
2018-02-03T00:08:14.877Z,3.22
2018-02-03T00:09:14.890Z,3.31
2018-02-03T00:10:14.905Z,3.36
2018-02-03T00:11:14.911Z,3.22
2018-02-03T00:12:14.925Z,3.24
2018-02-03T00:13:14.946Z,3.30
2018-02-03T00:14:14.951Z,3.31
2018-02-03T00:15:14.965Z,3.26
2018-02-03T00:16:14.967Z,3.27
2018-02-03T00:17:14.987Z,3.26
2018-02-03T00:18:15.000Z,3.27
2018-02-03T00:19:15.007Z,3.30
2018-02-03T00:20:15.030Z,3.37
2018-02-03T00:21:15.039Z,3.43
2018-02-03T00:22:15.055Z,3.45
2018-02-03T00:23:15.061Z,3.41
2018-02-03T00:24:15.079Z,3.36
2018-02-03T00:25:15.085Z,3.41
2018-02-03T00:26:15.100Z,3.43
2018-02-03T00:27:15.103Z,3.40
2018-02-03T00:28:15.128Z,3.43
2018-02-03T00:29:15.136Z,3.41
2018-02-03T00:30:15.140Z,3.48
2018-02-03T00:31:15.167Z,3.48
2018-02-03T00:32:15.173Z,3.43
2018-02-03T00:33:15.185Z,3.40
2018-02-03T00:34:15.195Z,3.33
2018-02-03T00:35:15.209Z,3.40
2018-02-03T00:36:15.223Z,3.40
2018-02-03T00:37:15.232Z,3.40
2018-02-03T00:38:15.236Z,3.40
2018-02-03T00:39:15.268Z,3.34
2018-02-03T00:40:15.269Z,3.37
2018-02-03T00:41:15.280Z,3.33
2018-02-03T00:42:15.292Z,3.30
2018-02-03T00:43:15.309Z,3.31
2018-02-03T00:44:15.324Z,3.26
2018-02-03T00:45:15.328Z,3.31
2018-02-03T00:46:15.351Z,3.29
2018-02-03T00:47:15.364Z,3.21
2018-02-03T00:48:15.365Z,3.26
2018-02-03T00:49:15.377Z,3.33
2018-02-03T00:50:15.388Z,3.21
2018-02-03T00:51:15.408Z,3.27
2018-02-03T00:52:15.418Z,3.21
2018-02-03T00:53:15.430Z,3.11
2018-02-03T00:54:15.434Z,3.06
2018-02-03T00:55:15.455Z,3.15
2018-02-03T00:56:15.458Z,3.13
2018-02-03T00:57:15.471Z,3.06
2018-02-03T00:58:15.481Z,3.06
2018-02-03T00:59:15.499Z,3.11
2018-02-03T01:00:15.513Z,3.13
2018-02-03T01:01:15.526Z,3.12
2018-02-03T01:02:15.528Z,3.11
2018-02-03T01:03:15.539Z,3.09
2018-02-03T01:04:15.555Z,3.11
2018-02-03T01:05:15.567Z,3.11
2018-02-03T01:06:15.577Z,3.06
2018-02-03T01:07:15.582Z,3.11
2018-02-03T01:08:15.608Z,3.05
2018-02-03T01:09:15.621Z,3.03
2018-02-03T01:10:15.621Z,3.11
2018-02-03T01:11:15.637Z,3.03
2018-02-03T01:12:15.653Z,3.09
2018-02-03T01:13:15.662Z,3.11
2018-02-03T01:14:15.675Z,3.08
2018-02-03T01:15:15.679Z,3.09
2018-02-03T01:16:15.703Z,3.09
2018-02-03T01:17:15.714Z,3.15
2018-02-03T01:18:15.717Z,3.01
2018-02-03T01:19:15.733Z,3.06
2018-02-03T01:20:15.754Z,3.06
2018-02-03T01:21:15.761Z,3.13
2018-02-03T01:22:15.773Z,3.11
2018-02-03T01:23:15.776Z,3.05
2018-02-03T01:24:15.805Z,3.05
2018-02-03T01:25:15.812Z,3.11
2018-02-03T01:26:15.816Z,3.15
2018-02-03T01:27:15.827Z,3.15
2018-02-03T01:28:15.843Z,3.11
2018-02-03T01:29:15.855Z,3.11
2018-02-03T01:30:15.869Z,3.12
2018-02-03T01:31:15.873Z,3.16
2018-02-03T01:32:15.902Z,3.15
2018-02-03T01:33:15.914Z,3.08
2018-02-03T01:34:15.912Z,3.26
2018-02-03T01:35:15.929Z,3.15
2018-02-03T01:36:15.941Z,3.27
2018-02-03T01:37:15.948Z,3.22
2018-02-03T01:38:15.963Z,3.13
2018-02-03T01:39:15.966Z,3.26
2018-02-03T01:40:16.006Z,3.19
2018-02-03T01:41:16.002Z,3.26
2018-02-03T01:42:16.005Z,3.22
2018-02-03T01:43:16.022Z,3.22
2018-02-03T01:44:16.039Z,3.22
2018-02-03T01:45:16.064Z,3.19
2018-02-03T01:46:16.067Z,3.16
2018-02-03T01:47:16.062Z,3.19
2018-02-03T01:48:16.089Z,3.18
2018-02-03T01:49:16.101Z,3.21
2018-02-03T01:50:16.101Z,3.31
2018-02-03T01:51:16.120Z,3.18
2018-02-03T01:52:16.137Z,3.15
2018-02-03T01:53:16.144Z,3.31
2018-02-03T01:54:16.156Z,3.19
2018-02-03T01:55:16.161Z,3.33
2018-02-03T01:56:16.189Z,3.30
2018-02-03T01:57:16.196Z,3.30
2018-02-03T01:58:16.200Z,3.29
2018-02-03T01:59:16.220Z,3.22
2018-02-03T02:00:16.229Z,3.33
2018-02-03T02:01:16.237Z,3.24
2018-02-03T02:02:16.257Z,3.30
2018-02-03T02:03:16.262Z,3.29
2018-02-03T02:04:16.284Z,3.19
2018-02-03T02:05:16.296Z,3.29
2018-02-03T02:06:16.297Z,3.27
2018-02-03T02:07:16.320Z,3.27
2018-02-03T02:08:16.325Z,3.30
2018-02-03T02:09:16.337Z,3.27
2018-02-03T02:10:16.353Z,3.31
2018-02-03T02:11:16.370Z,3.33
2018-02-03T02:12:16.381Z,3.27
2018-02-03T02:13:16.385Z,3.24
2018-02-03T02:14:16.393Z,3.34
2018-02-03T02:15:16.417Z,3.29
2018-02-03T02:16:16.426Z,3.29
2018-02-03T02:17:16.432Z,3.37
2018-02-03T02:18:16.449Z,3.36
2018-02-03T02:19:16.461Z,3.37
2018-02-03T02:20:16.481Z,3.36
2018-02-03T02:21:16.481Z,3.45
2018-02-03T02:22:16.491Z,3.41
2018-02-03T02:23:16.514Z,3.48
2018-02-03T02:24:16.519Z,3.46
2018-02-03T02:25:16.529Z,3.40
2018-02-03T02:26:16.554Z,3.37
2018-02-03T02:27:16.560Z,3.36
2018-02-03T02:28:16.575Z,3.34
2018-02-03T02:29:16.580Z,3.45
2018-02-03T02:30:16.602Z,3.45
2018-02-03T02:31:16.609Z,3.48
2018-02-03T02:32:16.617Z,3.41
2018-02-03T02:33:16.621Z,3.46
2018-02-03T02:34:16.649Z,3.45
2018-02-03T02:35:16.655Z,3.48
2018-02-03T02:36:16.670Z,3.41
2018-02-03T02:37:16.679Z,3.40
2018-02-03T02:38:16.693Z,3.49
2018-02-03T02:39:16.716Z,3.46
2018-02-03T02:40:16.708Z,3.52
2018-02-03T02:41:16.720Z,3.50
2018-02-03T02:42:16.747Z,3.50
2018-02-03T02:43:16.753Z,3.48
2018-02-03T02:44:16.764Z,3.49
2018-02-03T02:45:16.784Z,3.43
2018-02-03T02:46:16.791Z,3.53
2018-02-03T02:47:16.806Z,3.46
2018-02-03T02:48:16.808Z,3.52
2018-02-03T02:49:16.833Z,3.49
2018-02-03T02:50:16.840Z,3.48
2018-02-03T02:51:16.847Z,3.49
2018-02-03T02:52:16.878Z,3.48
2018-02-03T02:53:16.880Z,3.48
2018-02-03T02:54:16.886Z,3.46
2018-02-03T02:55:16.898Z,3.45
2018-02-03T02:56:16.915Z,3.49
2018-02-03T02:57:16.925Z,3.52
2018-02-03T02:58:16.939Z,3.50
2018-02-03T02:59:16.953Z,3.58
2018-02-03T03:00:16.970Z,3.50
2018-02-03T03:01:16.976Z,3.61
2018-02-03T03:02:16.991Z,3.55
2018-02-03T03:03:17.008Z,3.52
2018-02-03T03:04:17.014Z,3.61
2018-02-03T03:05:17.023Z,3.55
2018-02-03T03:06:17.035Z,3.63
2018-02-03T03:07:17.049Z,3.50
2018-02-03T03:08:17.066Z,3.50
2018-02-03T03:09:17.077Z,3.52
2018-02-03T03:10:17.089Z,3.48
2018-02-03T03:11:17.104Z,3.55
2018-02-03T03:12:17.157Z,3.55
2018-02-03T03:13:17.117Z,3.53
2018-02-03T03:14:17.143Z,3.59
2018-02-03T03:15:17.147Z,3.50
2018-02-03T03:16:17.160Z,3.58
2018-02-03T03:17:17.181Z,3.49
2018-02-03T03:18:17.187Z,3.59
2018-02-03T03:19:17.203Z,3.66
2018-02-03T03:20:17.220Z,3.61
2018-02-03T03:21:17.228Z,3.58
2018-02-03T03:22:17.237Z,3.52
2018-02-03T03:23:17.247Z,3.50
2018-02-03T03:24:17.282Z,3.58
2018-02-03T03:25:17.282Z,3.63
2018-02-03T03:26:17.282Z,3.49
2018-02-03T03:27:17.293Z,3.55
2018-02-03T03:28:17.312Z,3.58
2018-02-03T03:29:17.321Z,3.55
2018-02-03T03:30:17.340Z,3.68
2018-02-03T03:31:17.354Z,3.53
2018-02-03T03:32:17.369Z,3.58
2018-02-03T03:33:17.375Z,3.63
2018-02-03T03:34:17.382Z,3.59
2018-02-03T03:35:17.408Z,3.61
2018-02-03T03:36:17.411Z,3.63
2018-02-03T03:37:17.424Z,3.53
2018-02-03T03:38:17.446Z,3.63
2018-02-03T03:39:17.446Z,3.66
2018-02-03T03:40:17.460Z,3.66
2018-02-03T03:41:17.468Z,3.64
2018-02-03T03:42:17.492Z,3.67
2018-02-03T03:43:17.503Z,3.56
2018-02-03T03:44:17.505Z,3.64
2018-02-03T03:45:17.522Z,3.63
2018-02-03T03:46:17.541Z,3.61
2018-02-03T03:47:17.548Z,3.66
2018-02-03T03:48:17.555Z,3.66
2018-02-03T03:49:17.575Z,3.68
2018-02-03T03:50:17.588Z,3.49
2018-02-03T03:51:17.590Z,3.67
2018-02-03T03:52:17.615Z,3.52
2018-02-03T03:53:17.628Z,3.63
2018-02-03T03:54:17.629Z,3.67
2018-02-03T03:55:17.646Z,3.61
2018-02-03T03:56:17.661Z,3.64
2018-02-03T03:57:17.670Z,3.49
2018-02-03T03:58:17.684Z,3.48
2018-02-03T03:59:17.703Z,3.49
2018-02-03T04:00:17.713Z,3.48
2018-02-03T04:01:17.722Z,3.58
2018-02-03T04:02:17.725Z,3.52
2018-02-03T04:03:17.751Z,3.56
2018-02-03T04:04:17.756Z,3.63
2018-02-03T04:05:17.778Z,3.50
2018-02-03T04:06:17.791Z,3.46
2018-02-03T04:07:17.801Z,3.61
2018-02-03T04:08:17.812Z,3.56
2018-02-03T04:09:17.823Z,3.50
2018-02-03T04:10:17.837Z,3.48
2018-02-03T04:11:17.851Z,3.49
2018-02-03T04:12:17.858Z,3.61
2018-02-03T04:13:17.877Z,3.48
2018-02-03T04:14:17.887Z,3.48
2018-02-03T04:15:17.895Z,3.55
2018-02-03T04:16:17.908Z,3.48
2018-02-03T04:17:17.930Z,3.49
2018-02-03T04:18:17.932Z,3.59
2018-02-03T04:19:17.947Z,3.61
2018-02-03T04:20:17.963Z,3.46
2018-02-03T04:21:17.972Z,3.53
2018-02-03T04:22:17.984Z,3.66
2018-02-03T04:23:17.988Z,3.49
2018-02-03T04:24:18.013Z,3.50
2018-02-03T04:25:18.021Z,3.49
2018-02-03T04:26:18.031Z,3.48
2018-02-03T04:27:18.055Z,3.49
2018-02-03T04:28:18.060Z,3.49
2018-02-03T04:29:18.068Z,3.43
2018-02-03T04:30:18.086Z,3.40
2018-02-03T04:31:18.100Z,3.34
2018-02-03T04:32:18.109Z,3.24
2018-02-03T04:33:18.117Z,3.31
2018-02-03T04:34:18.128Z,3.21
2018-02-03T04:35:18.149Z,3.24
2018-02-03T04:36:18.153Z,3.29
2018-02-03T04:37:18.162Z,3.22
2018-02-03T04:38:18.179Z,3.13
2018-02-03T04:39:18.195Z,3.09
2018-02-03T04:40:18.206Z,3.15
2018-02-03T04:41:18.217Z,3.12
2018-02-03T04:42:18.221Z,3.11
2018-02-03T04:43:18.244Z,3.12
2018-02-03T04:44:18.248Z,3.09
2018-02-03T04:45:18.264Z,3.03
2018-02-03T04:46:18.270Z,3.08
2018-02-03T04:47:18.291Z,3.00
2018-02-03T04:48:18.306Z,3.01
2018-02-03T04:49:18.313Z,3.05
2018-02-03T04:50:18.321Z,3.03
2018-02-03T04:51:18.347Z,3.03
2018-02-03T04:52:18.345Z,2.98
2018-02-03T04:53:18.355Z,3.03
2018-02-03T04:54:18.367Z,3.01
2018-02-03T04:55:18.376Z,3.01
2018-02-03T04:56:18.405Z,3.11
2018-02-03T04:57:18.409Z,3.03
2018-02-03T04:58:18.413Z,3.00
2018-02-03T04:59:18.445Z,3.00
2018-02-03T05:00:18.491Z,2.93
2018-02-03T05:01:18.450Z,2.97
2018-02-03T05:02:18.467Z,3.00
2018-02-03T05:03:18.472Z,3.05
2018-02-03T05:04:18.496Z,2.97
2018-02-03T05:05:18.505Z,3.01
2018-02-03T05:06:18.509Z,3.08
2018-02-03T05:07:18.522Z,2.98
2018-02-03T05:08:18.531Z,2.95
2018-02-03T05:09:18.550Z,2.98
2018-02-03T05:10:18.563Z,2.93
2018-02-03T05:11:18.570Z,2.93
2018-02-03T05:12:18.592Z,2.94
2018-02-03T05:13:18.586Z,3.00
2018-02-03T05:14:18.608Z,3.05
2018-02-03T05:15:18.619Z,3.01
2018-02-03T05:16:18.622Z,3.03
2018-02-03T05:17:18.631Z,2.87
2018-02-03T05:18:18.662Z,2.98
2018-02-03T05:19:18.661Z,3.06
2018-02-03T05:20:18.677Z,2.97
2018-02-03T05:21:18.683Z,3.00
2018-02-03T05:22:18.701Z,2.97
2018-02-03T05:23:18.717Z,3.01
2018-02-03T05:24:18.718Z,3.08
2018-02-03T05:25:18.725Z,3.01
2018-02-03T05:26:18.740Z,2.94
2018-02-03T05:27:18.762Z,3.00
2018-02-03T05:28:18.772Z,3.03
2018-02-03T05:29:18.781Z,3.03
2018-02-03T05:30:18.787Z,3.06
2018-02-03T05:31:18.813Z,3.05
2018-02-03T05:32:18.819Z,3.03
2018-02-03T05:33:18.826Z,3.03
2018-02-03T05:34:18.841Z,3.00
2018-02-03T05:35:18.855Z,3.03
2018-02-03T05:36:18.868Z,2.98
2018-02-03T05:37:18.878Z,3.00
2018-02-03T05:38:18.881Z,3.06
2018-02-03T05:39:18.906Z,3.06
2018-02-03T05:40:18.911Z,3.00
2018-02-03T05:41:18.920Z,3.03
2018-02-03T05:42:18.936Z,3.00
2018-02-03T05:43:18.938Z,3.11
2018-02-03T05:44:18.961Z,2.98
2018-02-03T05:45:18.970Z,3.01
2018-02-03T05:46:18.978Z,3.06
2018-02-03T05:47:18.991Z,3.00
2018-02-03T05:48:19.007Z,3.08
2018-02-03T05:49:19.020Z,3.11
2018-02-03T05:50:19.030Z,3.08
2018-02-03T05:51:19.033Z,3.06
2018-02-03T05:52:19.063Z,3.08
2018-02-03T05:53:19.070Z,3.05
2018-02-03T05:54:19.072Z,3.06
2018-02-03T05:55:19.079Z,3.06
2018-02-03T05:56:19.106Z,3.06
2018-02-03T05:57:19.121Z,3.09
2018-02-03T05:58:19.120Z,3.06
2018-02-03T05:59:19.136Z,3.09
2018-02-03T06:00:19.151Z,3.06
2018-02-03T06:01:19.160Z,3.09
2018-02-03T06:02:19.190Z,3.03
2018-02-03T06:03:19.225Z,3.03
2018-02-03T06:04:19.206Z,3.09
2018-02-03T06:05:19.211Z,3.08
2018-02-03T06:06:19.216Z,3.09
2018-02-03T06:07:19.245Z,3.09
2018-02-03T06:08:19.247Z,3.13
2018-02-03T06:09:19.257Z,3.05
2018-02-03T06:10:19.270Z,3.09
2018-02-03T06:11:19.275Z,3.09
2018-02-03T06:12:19.300Z,3.05
2018-02-03T06:13:19.309Z,3.01
2018-02-03T06:14:19.313Z,3.03
2018-02-03T06:15:19.327Z,3.00
2018-02-03T06:16:19.341Z,3.06
2018-02-03T06:17:19.357Z,3.06
2018-02-03T06:18:19.365Z,3.09
2018-02-03T06:19:19.371Z,3.01
2018-02-03T06:20:19.384Z,3.06
2018-02-03T06:21:19.405Z,3.00
2018-02-03T06:22:19.416Z,3.03
2018-02-03T06:23:19.420Z,3.01
2018-02-03T06:24:19.426Z,3.09
2018-02-03T06:25:19.452Z,3.01
2018-02-03T06:26:19.464Z,3.03
2018-02-03T06:27:19.470Z,3.00
2018-02-03T06:28:19.477Z,3.06
2018-02-03T06:29:19.500Z,3.08
2018-02-03T06:30:19.504Z,2.98
2018-02-03T06:31:19.522Z,3.01
2018-02-03T06:32:19.526Z,3.03
2018-02-03T06:33:19.534Z,3.00
2018-02-03T06:34:19.558Z,3.08
2018-02-03T06:35:19.565Z,2.94
2018-02-03T06:36:19.576Z,3.03
2018-02-03T06:37:19.586Z,3.05
2018-02-03T06:38:19.601Z,2.94
2018-02-03T06:39:19.615Z,3.05
2018-02-03T06:40:19.621Z,3.05
2018-02-03T06:41:19.629Z,3.05
2018-02-03T06:42:19.654Z,3.00
2018-02-03T06:43:19.659Z,3.08
2018-02-03T06:44:19.672Z,3.06
2018-02-03T06:45:19.681Z,3.03
2018-02-03T06:46:19.688Z,3.01
2018-02-03T06:47:19.709Z,3.03
2018-02-03T06:48:19.714Z,3.05
2018-02-03T06:49:19.726Z,3.09
2018-02-03T06:50:19.750Z,3.03
2018-02-03T06:51:19.756Z,3.00
2018-02-03T06:52:19.770Z,3.06
2018-02-03T06:53:19.781Z,3.03
2018-02-03T06:54:19.782Z,2.98
2018-02-03T06:55:19.806Z,3.03
2018-02-03T06:56:19.810Z,3.00
2018-02-03T06:57:19.826Z,3.00
2018-02-03T06:58:19.833Z,3.03
2018-02-03T06:59:19.851Z,3.09
2018-02-03T07:00:19.864Z,2.98
2018-02-03T07:01:19.878Z,3.05
2018-02-03T07:02:19.878Z,3.06
2018-02-03T07:03:19.906Z,3.03
2018-02-03T07:04:19.912Z,2.98
2018-02-03T07:05:19.932Z,3.03
2018-02-03T07:06:19.929Z,2.98
2018-02-03T07:07:19.939Z,2.98
2018-02-03T07:08:19.968Z,2.97
2018-02-03T07:09:19.973Z,2.98
2018-02-03T07:10:19.974Z,2.98
2018-02-03T07:11:19.985Z,2.97
2018-02-03T07:12:20.003Z,3.00
2018-02-03T07:13:20.013Z,3.12
2018-02-03T07:14:20.030Z,3.09
2018-02-03T07:15:20.034Z,3.09
2018-02-03T07:16:20.054Z,3.06
2018-02-03T07:17:20.071Z,3.05
2018-02-03T07:18:20.149Z,3.06
2018-02-03T07:19:20.087Z,3.05
2018-02-03T07:20:20.102Z,3.03
2018-02-03T07:21:20.109Z,3.09
2018-02-03T07:22:20.123Z,3.09
2018-02-03T07:23:20.128Z,3.01
2018-02-03T07:24:20.156Z,3.01
2018-02-03T07:25:20.163Z,3.08
2018-02-03T07:26:20.165Z,3.11
2018-02-03T07:27:20.181Z,3.08
2018-02-03T07:28:20.235Z,3.03
2018-02-03T07:29:20.205Z,3.05
2018-02-03T07:30:20.221Z,3.11
2018-02-03T07:31:20.223Z,3.03
2018-02-03T07:32:20.241Z,3.11
2018-02-03T07:33:20.259Z,3.09
2018-02-03T07:34:20.263Z,3.09
2018-02-03T07:35:20.279Z,3.11
2018-02-03T07:36:20.281Z,3.00
2018-02-03T07:37:20.306Z,3.11
2018-02-03T07:38:20.317Z,3.16
2018-02-03T07:39:20.321Z,3.11
2018-02-03T07:40:20.338Z,3.06
2018-02-03T07:41:20.355Z,3.05
2018-02-03T07:42:20.362Z,3.11
2018-02-03T07:43:20.376Z,3.11
2018-02-03T07:44:20.378Z,3.18
2018-02-03T07:45:20.396Z,3.03
2018-02-03T07:46:20.410Z,3.13
2018-02-03T07:47:20.420Z,3.12
2018-02-03T07:48:20.428Z,3.15
2018-02-03T07:49:20.449Z,3.22
2018-02-03T07:50:20.457Z,3.19
2018-02-03T07:51:20.468Z,3.18
2018-02-03T07:52:20.474Z,3.13
2018-02-03T07:53:20.495Z,3.22
2018-02-03T07:54:20.510Z,3.22
2018-02-03T07:55:20.510Z,3.26
2018-02-03T07:56:20.523Z,3.21
2018-02-03T07:57:20.551Z,3.22
2018-02-03T07:58:20.553Z,3.18
2018-02-03T07:59:20.565Z,3.29
2018-02-03T08:00:20.575Z,3.22
2018-02-03T08:01:20.592Z,3.29
2018-02-03T08:02:20.607Z,3.26
2018-02-03T08:03:20.613Z,3.31
2018-02-03T08:04:20.634Z,3.26
2018-02-03T08:05:20.638Z,3.21
2018-02-03T08:06:20.653Z,3.21
2018-02-03T08:07:20.655Z,3.16
2018-02-03T08:08:20.680Z,3.18
2018-02-03T08:09:20.690Z,3.22
2018-02-03T08:10:20.698Z,3.19
2018-02-03T08:11:20.711Z,3.13
2018-02-03T08:12:20.739Z,3.16
2018-02-03T08:13:20.735Z,3.15
2018-02-03T08:14:20.751Z,3.16
2018-02-03T08:15:20.757Z,3.13
2018-02-03T08:16:20.776Z,3.11
2018-02-03T08:17:20.791Z,3.08
2018-02-03T08:18:20.790Z,3.13
2018-02-03T08:19:20.816Z,3.06
2018-02-03T08:20:20.820Z,3.11
2018-02-03T08:21:20.829Z,3.08
2018-02-03T08:22:20.845Z,3.06
2018-02-03T08:23:20.851Z,3.08
2018-02-03T08:24:20.878Z,3.09
2018-02-03T08:25:20.885Z,3.12
2018-02-03T08:26:20.887Z,3.03
2018-02-03T08:27:20.953Z,2.98
2018-02-03T08:28:20.920Z,3.01
2018-02-03T08:29:20.924Z,3.00
2018-02-03T08:30:20.940Z,3.01
2018-02-03T08:31:20.946Z,3.00
2018-02-03T08:32:20.973Z,3.11
2018-02-03T08:33:20.979Z,3.05
2018-02-03T08:34:20.984Z,3.06
2018-02-03T08:35:20.996Z,2.93
2018-02-03T08:36:21.013Z,3.06
2018-02-03T08:37:21.027Z,3.11
2018-02-03T08:38:21.037Z,3.09
2018-02-03T08:39:21.042Z,2.97
2018-02-03T08:40:21.064Z,3.05
2018-02-03T08:41:21.074Z,3.05
2018-02-03T08:42:21.078Z,3.06
2018-02-03T08:43:21.093Z,2.90
2018-02-03T08:44:21.111Z,2.93
2018-02-03T08:45:21.120Z,2.91
2018-02-03T08:46:21.132Z,2.97
2018-02-03T08:47:21.136Z,2.87
2018-02-03T08:48:21.155Z,2.94
2018-02-03T08:49:21.173Z,2.93
2018-02-03T08:50:21.179Z,2.93
2018-02-03T08:51:21.188Z,3.00
2018-02-03T08:52:21.203Z,2.91
2018-02-03T08:53:21.215Z,2.88
2018-02-03T08:54:21.226Z,2.91
2018-02-03T08:55:21.237Z,2.97
2018-02-03T08:56:21.247Z,2.93
2018-02-03T08:57:21.270Z,2.90
2018-02-03T08:58:21.274Z,2.91
2018-02-03T08:59:21.284Z,2.87
2018-02-03T09:00:21.294Z,2.93
2018-02-03T09:01:21.301Z,2.88
2018-02-03T09:02:21.322Z,2.85
2018-02-03T09:03:21.330Z,2.93
2018-02-03T09:04:21.344Z,2.88
2018-02-03T09:05:21.351Z,2.85
2018-02-03T09:06:21.369Z,2.85
2018-02-03T09:07:21.380Z,2.85
2018-02-03T09:08:21.384Z,2.80
2018-02-03T09:09:21.393Z,2.80
2018-02-03T09:10:21.431Z,2.80
2018-02-03T09:11:21.431Z,2.82
2018-02-03T09:12:21.438Z,2.82
2018-02-03T09:13:21.447Z,2.87
2018-02-03T09:14:21.466Z,2.80
2018-02-03T09:15:21.497Z,2.80
2018-02-03T09:16:21.487Z,2.87
2018-02-03T09:17:21.490Z,2.87
2018-02-03T09:18:21.523Z,2.83
2018-02-03T09:19:21.526Z,2.82
2018-02-03T09:20:21.534Z,2.83
2018-02-03T09:21:21.543Z,2.82
2018-02-03T09:22:21.562Z,2.80
2018-02-03T09:23:21.576Z,2.76
2018-02-03T09:24:21.580Z,2.82
2018-02-03T09:25:21.587Z,2.83
2018-02-03T09:26:21.618Z,2.77
2018-02-03T09:27:21.615Z,2.76
2018-02-03T09:28:21.634Z,2.76
2018-02-03T09:29:21.642Z,2.77
2018-02-03T09:30:21.648Z,2.77
2018-02-03T09:31:21.670Z,2.77
2018-02-03T09:32:21.675Z,2.79
2018-02-03T09:33:21.696Z,2.87
2018-02-03T09:34:21.708Z,2.80
2018-02-03T09:35:21.713Z,2.83
2018-02-03T09:36:21.724Z,2.88
2018-02-03T09:37:21.738Z,2.82
2018-02-03T09:38:21.751Z,2.87
2018-02-03T09:39:21.770Z,2.75
2018-02-03T09:40:21.769Z,2.72
2018-02-03T09:41:21.782Z,2.73
2018-02-03T09:42:21.804Z,2.79
2018-02-03T09:43:21.811Z,2.75
2018-02-03T09:44:21.822Z,2.77
2018-02-03T09:45:21.835Z,2.69
2018-02-03T09:46:21.850Z,2.75
2018-02-03T09:47:21.859Z,2.70
2018-02-03T09:48:21.866Z,2.72
2018-02-03T09:49:21.875Z,2.72
2018-02-03T09:50:21.946Z,2.70
2018-02-03T09:51:21.908Z,2.79
2018-02-03T09:52:21.920Z,2.72
2018-02-03T09:53:21.929Z,2.68
2018-02-03T09:54:21.938Z,2.70
2018-02-03T09:55:21.959Z,2.75
2018-02-03T09:56:21.969Z,2.77
2018-02-03T09:57:21.972Z,2.87
2018-02-03T09:58:21.987Z,2.75
2018-02-03T09:59:22.006Z,2.77
2018-02-03T10:00:22.017Z,2.75
2018-02-03T10:01:22.028Z,2.72
2018-02-03T10:02:22.032Z,2.72
2018-02-03T10:03:22.059Z,2.72
2018-02-03T10:04:22.064Z,2.75
2018-02-03T10:05:22.089Z,2.75
2018-02-03T10:06:22.082Z,2.76
2018-02-03T10:07:22.096Z,2.75
2018-02-03T10:08:22.114Z,2.68
2018-02-03T10:09:22.128Z,2.75
2018-02-03T10:10:22.136Z,2.70
2018-02-03T10:11:22.147Z,2.75
2018-02-03T10:12:22.160Z,2.75
2018-02-03T10:13:22.170Z,2.72
2018-02-03T10:14:22.185Z,2.73
2018-02-03T10:15:22.202Z,2.72
2018-02-03T10:16:22.201Z,2.76
2018-02-03T10:17:22.217Z,2.75
2018-02-03T10:18:22.240Z,2.77
2018-02-03T10:19:22.244Z,2.76
2018-02-03T10:20:22.256Z,2.77
2018-02-03T10:21:22.264Z,2.68
2018-02-03T10:22:22.273Z,2.68
2018-02-03T10:23:22.294Z,2.75
2018-02-03T10:24:22.300Z,2.59
2018-02-03T10:25:22.313Z,2.64
2018-02-03T10:26:22.320Z,2.69
2018-02-03T10:27:22.336Z,2.72
2018-02-03T10:28:22.354Z,2.72
2018-02-03T10:29:22.358Z,2.68
2018-02-03T10:30:22.369Z,2.61
2018-02-03T10:31:22.393Z,2.73
2018-02-03T10:32:22.395Z,2.61
2018-02-03T10:33:22.405Z,2.59
2018-02-03T10:34:22.419Z,2.76
2018-02-03T10:35:22.441Z,2.69
2018-02-03T10:36:22.449Z,2.59
2018-02-03T10:37:22.454Z,2.62
2018-02-03T10:38:22.459Z,2.58
2018-02-03T10:39:22.477Z,2.64
2018-02-03T10:40:22.493Z,2.58
2018-02-03T10:41:22.501Z,2.65
2018-02-03T10:42:22.513Z,2.58
2018-02-03T10:43:22.522Z,2.59
2018-02-03T10:44:22.544Z,2.62
2018-02-03T10:45:22.565Z,2.65
2018-02-03T10:46:22.558Z,2.62
2018-02-03T10:47:22.570Z,2.65
2018-02-03T10:48:22.585Z,2.76
2018-02-03T10:49:22.596Z,2.68
2018-02-03T10:50:22.614Z,2.73
2018-02-03T10:51:22.627Z,2.76
2018-02-03T10:52:22.642Z,2.68
2018-02-03T10:53:22.650Z,2.72
2018-02-03T10:54:22.654Z,2.70
2018-02-03T10:55:22.670Z,2.76
2018-02-03T10:56:22.687Z,2.72
2018-02-03T10:57:22.691Z,2.70
2018-02-03T10:58:22.703Z,2.65
2018-02-03T10:59:22.711Z,2.76
2018-02-03T11:00:22.743Z,2.70
2018-02-03T11:01:22.747Z,2.70
2018-02-03T11:02:22.749Z,2.72
2018-02-03T11:03:22.773Z,2.73
2018-02-03T11:04:22.782Z,2.76
2018-02-03T11:05:22.792Z,2.64
2018-02-03T11:06:22.804Z,2.75
2018-02-03T11:07:22.823Z,2.69
2018-02-03T11:08:22.831Z,2.70
2018-02-03T11:09:22.840Z,2.69
2018-02-03T11:10:22.844Z,2.70
2018-02-03T11:11:22.863Z,2.54
2018-02-03T11:12:22.888Z,2.70
2018-02-03T11:13:22.891Z,2.73
2018-02-03T11:14:22.898Z,2.72
2018-02-03T11:15:22.918Z,2.73
2018-02-03T11:16:22.932Z,2.70
2018-02-03T11:17:22.935Z,2.73
2018-02-03T11:18:22.940Z,2.68
2018-02-03T11:19:22.961Z,2.77
2018-02-03T11:20:22.972Z,2.70
2018-02-03T11:21:22.985Z,2.70
2018-02-03T11:22:22.994Z,2.73
2018-02-03T11:23:23.010Z,2.70
2018-02-03T11:24:23.023Z,2.62
2018-02-03T11:25:23.035Z,2.72
2018-02-03T11:26:23.036Z,2.72
2018-02-03T11:27:23.054Z,2.68
2018-02-03T11:28:23.071Z,2.59
2018-02-03T11:29:23.081Z,2.59
2018-02-03T11:30:23.091Z,2.65
2018-02-03T11:31:23.112Z,2.61
2018-02-03T11:32:23.125Z,2.62
2018-02-03T11:33:23.133Z,2.57
2018-02-03T11:34:23.137Z,2.59
2018-02-03T11:35:23.147Z,2.62
2018-02-03T11:36:23.167Z,2.59
2018-02-03T11:37:23.172Z,2.58
2018-02-03T11:38:23.191Z,2.52
2018-02-03T11:39:23.193Z,2.61
2018-02-03T11:40:23.217Z,2.62
2018-02-03T11:41:23.225Z,2.64
2018-02-03T11:42:23.230Z,2.62
2018-02-03T11:43:23.243Z,2.65
2018-02-03T11:44:23.260Z,2.64
2018-02-03T11:45:23.271Z,2.64
2018-02-03T11:46:23.288Z,2.64
2018-02-03T11:47:23.298Z,2.59
2018-02-03T11:48:23.315Z,2.62
2018-02-03T11:49:23.319Z,2.65
2018-02-03T11:50:23.331Z,2.65
2018-02-03T11:51:23.353Z,2.69
2018-02-03T11:52:23.358Z,2.69
2018-02-03T11:53:23.365Z,2.72
2018-02-03T11:54:23.383Z,2.73
2018-02-03T11:55:23.394Z,2.73
2018-02-03T11:56:23.413Z,2.72
2018-02-03T11:57:23.420Z,2.77
2018-02-03T11:58:23.421Z,2.82
2018-02-03T11:59:23.452Z,2.88
2018-02-03T12:00:23.453Z,2.91
2018-02-03T12:01:23.463Z,2.98
2018-02-03T12:02:23.488Z,2.88
2018-02-03T12:03:23.493Z,3.03
2018-02-03T12:04:23.505Z,2.97
2018-02-03T12:05:23.515Z,2.88
2018-02-03T12:06:23.555Z,3.01
2018-02-03T12:07:23.543Z,2.93
2018-02-03T12:08:23.548Z,3.03
2018-02-03T12:09:23.569Z,3.00
2018-02-03T12:10:23.586Z,2.94
2018-02-03T12:11:23.588Z,3.05
2018-02-03T12:12:23.620Z,2.98
2018-02-03T12:13:23.623Z,2.90
2018-02-03T12:14:23.630Z,2.91
2018-02-03T12:15:23.640Z,3.05
2018-02-03T12:16:23.659Z,2.88
2018-02-03T12:17:23.665Z,2.98
2018-02-03T12:18:23.679Z,2.90
2018-02-03T12:19:23.699Z,3.06
2018-02-03T12:20:23.720Z,2.98
2018-02-03T12:21:23.720Z,3.06
2018-02-03T12:22:23.738Z,2.94
2018-02-03T12:23:23.746Z,2.98
2018-02-03T12:24:23.765Z,2.94
2018-02-03T12:25:23.769Z,3.08
2018-02-03T12:26:23.784Z,2.98
2018-02-03T12:27:23.833Z,3.05
2018-02-03T12:28:23.800Z,3.03
2018-02-03T12:29:23.827Z,2.98
2018-02-03T12:30:23.835Z,3.06
2018-02-03T12:31:23.841Z,3.03
2018-02-03T12:32:23.875Z,3.05
2018-02-03T12:33:23.876Z,3.12
2018-02-03T12:34:23.880Z,3.00
2018-02-03T12:35:23.907Z,2.98
2018-02-03T12:36:23.915Z,3.06
2018-02-03T12:37:23.920Z,3.03
2018-02-03T12:38:23.957Z,3.00
2018-02-03T12:39:23.950Z,3.11
2018-02-03T12:40:23.965Z,3.12
2018-02-03T12:41:23.986Z,3.03
2018-02-03T12:42:23.994Z,3.11
2018-02-03T12:43:24.003Z,3.03
2018-02-03T12:44:24.019Z,3.06
2018-02-03T12:45:24.030Z,3.05
2018-02-03T12:46:24.046Z,3.12
2018-02-03T12:47:24.056Z,3.00
2018-02-03T12:48:24.073Z,3.08
2018-02-03T12:49:24.084Z,3.05
2018-02-03T12:50:24.084Z,3.00
2018-02-03T12:51:24.110Z,3.06
2018-02-03T12:52:24.122Z,3.08
2018-02-03T12:53:24.123Z,3.01
2018-02-03T12:54:24.148Z,3.01
2018-02-03T12:55:24.154Z,3.09
2018-02-03T12:56:24.180Z,3.08
2018-02-03T12:57:24.194Z,3.05
2018-02-03T12:58:24.196Z,2.98
2018-02-03T12:59:24.205Z,3.05
2018-02-03T13:00:24.225Z,3.06
2018-02-03T13:01:24.234Z,3.05
2018-02-03T13:02:24.245Z,3.06
2018-02-03T13:03:24.264Z,3.00
2018-02-03T13:04:24.276Z,3.01
2018-02-03T13:05:24.289Z,3.01
2018-02-03T13:06:24.305Z,3.05
2018-02-03T13:07:24.320Z,3.05
2018-02-03T13:08:24.320Z,2.98
2018-02-03T13:09:24.331Z,3.01
2018-02-03T13:10:24.355Z,2.93
2018-02-03T13:11:24.358Z,3.05
2018-02-03T13:12:24.372Z,2.95
2018-02-03T13:13:24.393Z,2.93
2018-02-03T13:14:24.403Z,2.94
2018-02-03T13:15:24.411Z,2.95
2018-02-03T13:16:24.430Z,2.93
2018-02-03T13:17:24.442Z,2.91
2018-02-03T13:18:24.455Z,2.97